createdAt,value
2022-11-29T00:01:26.405Z,991
2022-11-29T00:07:26.464Z,991
2022-11-29T00:13:26.410Z,991
2022-11-29T00:19:26.412Z,991
2022-11-29T00:25:26.436Z,991
2022-11-29T00:31:26.409Z,991
2022-11-29T00:37:26.385Z,991
2022-11-29T00:43:26.429Z,991
2022-11-29T00:49:26.412Z,991
2022-11-29T00:55:26.430Z,991
2022-11-29T01:01:26.475Z,991
2022-11-29T01:07:26.448Z,991
2022-11-29T01:13:26.414Z,991
2022-11-29T01:19:26.464Z,991
2022-11-29T01:25:26.407Z,991
2022-11-29T01:31:26.416Z,991
2022-11-29T01:37:26.431Z,991
2022-11-29T01:43:26.386Z,991
2022-11-29T01:49:26.435Z,992
2022-11-29T01:55:26.432Z,992
2022-11-29T02:01:26.474Z,992
2022-11-29T02:07:26.452Z,992
2022-11-29T02:13:26.435Z,992
2022-11-29T02:19:26.422Z,992
2022-11-29T02:25:26.397Z,992
2022-11-29T02:31:26.426Z,992
2022-11-29T02:37:26.411Z,992
2022-11-29T02:43:26.393Z,992
2022-11-29T02:49:26.445Z,992
2022-11-29T02:55:26.385Z,992
2022-11-29T03:01:26.466Z,992
2022-11-29T03:07:26.435Z,992
2022-11-29T03:13:26.390Z,992
2022-11-29T03:19:26.399Z,992
2022-11-29T03:25:26.413Z,992
2022-11-29T03:31:26.463Z,992
2022-11-29T03:37:26.411Z,992
2022-11-29T03:43:26.495Z,992
2022-11-29T03:49:26.566Z,992
2022-11-29T03:55:26.581Z,992
2022-11-29T04:01:26.483Z,992
2022-11-29T04:07:26.432Z,992
2022-11-29T04:13:26.404Z,992
2022-11-29T04:19:26.423Z,992
2022-11-29T04:25:26.409Z,992
2022-11-29T04:31:26.458Z,992
2022-11-29T04:37:26.439Z,992
2022-11-29T04:43:26.419Z,992
2022-11-29T04:49:26.398Z,992
2022-11-29T04:55:30.658Z,993
2022-11-29T05:01:26.414Z,993
2022-11-29T05:07:26.490Z,993
2022-11-29T05:13:26.417Z,993
2022-11-29T05:19:26.434Z,993
2022-11-29T05:25:26.390Z,993
2022-11-29T05:31:26.492Z,993
2022-11-29T05:37:26.404Z,993
2022-11-29T05:43:26.418Z,993
2022-11-29T05:49:26.467Z,993
2022-11-29T05:55:26.415Z,993
2022-11-29T06:01:26.410Z,993
2022-11-29T06:07:26.475Z,993
2022-11-29T06:13:26.402Z,993
2022-11-29T06:19:26.419Z,993
2022-11-29T06:25:26.425Z,993
2022-11-29T06:31:26.451Z,993
2022-11-29T06:37:26.452Z,993
2022-11-29T06:43:26.427Z,993
2022-11-29T06:49:26.412Z,994
2022-11-29T06:55:26.417Z,994
2022-11-29T07:01:26.504Z,994
2022-11-29T07:07:26.420Z,994
2022-11-29T07:13:26.412Z,994
2022-11-29T07:19:26.445Z,994
2022-11-29T07:25:26.398Z,994
2022-11-29T07:31:26.449Z,994
2022-11-29T07:37:26.433Z,994
2022-11-29T07:43:26.395Z,994
2022-11-29T07:49:26.409Z,994
2022-11-29T07:55:26.508Z,994
2022-11-29T08:01:26.452Z,994
2022-11-29T08:07:26.485Z,994
2022-11-29T08:13:26.422Z,994
2022-11-29T08:19:26.398Z,994
2022-11-29T08:25:26.405Z,994
2022-11-29T08:31:26.502Z,994
2022-11-29T08:37:26.400Z,994
2022-11-29T08:43:26.448Z,994
2022-11-29T08:49:26.453Z,995
2022-11-29T08:55:26.416Z,995
2022-11-29T09:01:26.500Z,995
2022-11-29T09:07:26.483Z,995
2022-11-29T09:13:26.397Z,995
2022-11-29T09:19:26.390Z,995
2022-11-29T09:25:26.531Z,995
2022-11-29T09:31:26.467Z,995
2022-11-29T09:37:26.397Z,995
2022-11-29T09:43:26.420Z,995
2022-11-29T09:49:26.407Z,995
2022-11-29T09:55:26.397Z,995
2022-11-29T10:01:26.459Z,995
2022-11-29T10:07:26.463Z,995
2022-11-29T10:13:26.375Z,995
2022-11-29T10:19:26.432Z,995
2022-11-29T10:25:26.387Z,995
2022-11-29T10:31:26.395Z,995
2022-11-29T10:37:26.422Z,995
2022-11-29T10:43:26.402Z,995
2022-11-29T10:49:26.418Z,995
2022-11-29T10:55:26.419Z,995
2022-11-29T11:01:26.481Z,995
2022-11-29T11:07:26.458Z,995
2022-11-29T11:13:26.438Z,996
2022-11-29T11:19:26.415Z,996
2022-11-29T11:25:26.435Z,995
2022-11-29T11:31:26.423Z,996
2022-11-29T11:37:26.383Z,996
2022-11-29T11:43:26.383Z,995
2022-11-29T11:49:26.438Z,995
2022-11-29T11:55:26.392Z,995
2022-11-29T12:01:26.422Z,996
2022-11-29T12:07:59.293Z,996
2022-11-29T12:13:26.414Z,996
2022-11-29T12:19:26.382Z,996
2022-11-29T12:25:26.454Z,996
2022-11-29T12:31:26.456Z,996
2022-11-29T12:37:26.404Z,996
2022-11-29T12:43:26.416Z,996
2022-11-29T12:49:26.367Z,996
2022-11-29T12:55:26.385Z,996
2022-11-29T13:01:26.500Z,996
2022-11-29T13:07:26.468Z,996
2022-11-29T13:13:26.385Z,996
2022-11-29T13:19:26.410Z,997
2022-11-29T13:25:26.437Z,997
2022-11-29T13:31:26.760Z,997
2022-11-29T13:37:26.504Z,997
2022-11-29T13:43:29.148Z,997
2022-11-29T13:49:26.430Z,997
2022-11-29T13:55:26.407Z,997
2022-11-29T14:01:26.423Z,997
2022-11-29T14:07:26.502Z,997
2022-11-29T14:13:26.417Z,997
2022-11-29T14:19:30.111Z,997
2022-11-29T14:31:26.463Z,997
2022-11-29T14:37:26.389Z,997
2022-11-29T14:43:26.424Z,997
2022-11-29T14:49:26.438Z,997
2022-11-29T14:55:26.383Z,997
2022-11-29T15:01:26.433Z,997
2022-11-29T15:07:26.451Z,997
2022-11-29T15:13:26.405Z,997
2022-11-29T15:19:26.386Z,997
2022-11-29T15:25:26.428Z,997
2022-11-29T15:31:26.448Z,997
2022-11-29T15:37:26.373Z,997
2022-11-29T15:43:26.443Z,997
2022-11-29T15:49:26.395Z,997
2022-11-29T15:55:26.404Z,997
2022-11-29T16:01:26.496Z,997
2022-11-29T16:07:26.466Z,997
2022-11-29T16:13:26.400Z,997
2022-11-29T16:19:26.433Z,997
2022-11-29T16:25:26.386Z,997
2022-11-29T16:31:26.422Z,997
2022-11-29T16:37:26.421Z,997
2022-11-29T16:43:26.388Z,997
2022-11-29T16:49:26.394Z,997
2022-11-29T16:55:26.435Z,997
2022-11-29T17:01:26.403Z,998
2022-11-29T17:07:26.392Z,998
2022-11-29T17:13:26.423Z,998
2022-11-29T17:19:26.384Z,998
2022-11-29T17:25:26.387Z,998
2022-11-29T17:31:26.434Z,998
2022-11-29T17:37:26.374Z,998
2022-11-29T17:43:26.407Z,998
2022-11-29T17:49:26.417Z,998
2022-11-29T17:55:29.522Z,998
2022-11-29T18:01:26.451Z,998
2022-11-29T18:07:26.488Z,998
2022-11-29T18:13:26.384Z,998
2022-11-29T18:19:26.370Z,998
2022-11-29T18:25:39.889Z,998
2022-11-29T18:31:28.054Z,998
2022-11-29T18:37:54.559Z,998
2022-11-29T18:43:26.423Z,998
2022-11-29T18:49:26.382Z,998
2022-11-29T18:55:26.390Z,998
2022-11-29T19:01:26.425Z,998
2022-11-29T19:07:26.452Z,998
2022-11-29T19:13:26.371Z,998
2022-11-29T19:19:26.436Z,998
2022-11-29T19:25:26.381Z,998
2022-11-29T19:31:26.443Z,998
2022-11-29T19:37:26.407Z,998
2022-11-29T19:43:26.432Z,998
2022-11-29T19:49:26.385Z,998
2022-11-29T19:55:26.388Z,998
2022-11-29T20:01:26.446Z,998
2022-11-29T20:07:26.438Z,998
2022-11-29T20:13:26.409Z,998
2022-11-29T20:19:26.403Z,998
2022-11-29T20:25:26.384Z,998
2022-11-29T20:31:26.473Z,998
2022-11-29T20:37:26.394Z,998
2022-11-29T20:43:26.381Z,998
2022-11-29T20:49:26.462Z,998
2022-11-29T20:55:26.374Z,999
2022-11-29T21:01:26.459Z,999
2022-11-29T21:07:26.427Z,999
2022-11-29T21:13:26.368Z,999
2022-11-29T21:19:26.414Z,999
2022-11-29T21:25:26.401Z,999
2022-11-29T21:31:26.455Z,999
2022-11-29T21:37:26.375Z,999
2022-11-29T21:43:57.889Z,999
2022-11-29T21:49:26.392Z,999
2022-11-29T21:55:31.771Z,999
2022-11-29T22:01:26.437Z,999
2022-11-29T22:07:26.420Z,999
2022-11-29T22:13:26.391Z,999
2022-11-29T22:19:26.423Z,999
2022-11-29T22:25:26.395Z,999
2022-11-29T22:31:26.451Z,999
2022-11-29T22:37:26.491Z,999
2022-11-29T22:43:26.365Z,999
2022-11-29T22:49:26.401Z,999
2022-11-29T22:55:26.402Z,999
2022-11-29T23:01:26.396Z,999
2022-11-29T23:07:26.421Z,999
2022-11-29T23:13:26.427Z,999
2022-11-29T23:19:26.387Z,999
2022-11-29T23:25:26.384Z,999
2022-11-29T23:31:26.457Z,999
2022-11-29T23:37:26.375Z,999
2022-11-29T23:43:26.392Z,999
2022-11-29T23:49:26.409Z,999
2022-11-29T23:55:26.357Z,999
